Terminal Aerodrome Forecast
Issued by NWS

Current Version | Previous Version | Text Only | Print | Product List | Glossary On
Versions: 1 2 3 4 5 6 7 8 9 10 11 12 13 14 15
604
FTUS42 KMLB 061533 AAA
TAFISM
TAF AMD
KISM 061533Z 0616/0712 22017G25KT P6SM VCSH SCT018 BKN040
      TEMPO 0616/0618 3SM SHRA BKN018
     FM062200 25011KT P6SM BKN050
     FM070300 26006KT P6SM SCT025=

USA.gov is the U.S. government's official web portal to all federal, state and local government web resources and services.